Hauptseite
METAR-TAF:

METAR-TAF

Flughäfen :

Flughafen Luxemburg

Luxemburg, Luxemburg

Breite: 49-37N, Länge: 006-13E, Höhe: 376 m

Beobachtung

Neuester Wetterbericht von vor 12 Minuten, um 13:20 UTC
Wind 3 kt aus unterschiedlichen Richtungen
Temperatur 23°C
Luftfeuchtigkeit 33%
Luftdruck 1014 hPa
Sichtweite 10 km oder mehr
keine Wolken unter 1500 m und keine Kumulonimbus oder Gewitterwolken

METAR: ELLX 151320Z VRB03KT CAVOK 23/06 Q1014 NOSIG

Zeit: 15:32 (13:32 UTC)

Prognose

Neuester Wetterbericht von vor 2 Stunden und 32 Minuten, um 11:00 UTC
Gültige Prognose vom 15 um 12 UTC bis 16 um 18 UTC
Wind 5 kt aus Südost
Sichtweite 10 km oder mehr
keine Wolken unter 1500 m und keine Kumulonimbus oder Gewitterwolken
Übergehend zu
vom 15 um 14 UTC bis 15 um 17 UTC
Wind 10 kt aus Nordost

TAF: ELLX 151100Z 1512/1618 14005KT CAVOK BECMG 1514/1517 05010KT

Wetterbeobachtungen und Prognosen von mehr als 4000 Flughäfen (METAR und TAF Bericht).

Die verfügbaren Stationen werden durch gelbe und rote Markierungen auf der Karte dargestellt.

Führen Sie die Maus auf sie, um den Namen der Station zu sehen.

Darauf klicken, um die Beobachtung von Wetterbeobachtungen und Prognosen zu sehen.

Um die Karte zu ändern : klicken Sie auf den grünen Tasten mit einem schwarzen Kreuz Zum Vergrößern, auf den grünen Button mit einem Gedankenstrich zu verkleinern, oder auf die grünen Pfeile für benachbarte Karten.


METAR-TAF: